ADDS METAR Data INFO
IDs: Format: Raw Decoded Include TAF

Data at: 0331 UTC 28 Jun 2017

KCPU 280315Z AUTO 34004KT 10SM CLR 25/11 A2988 RMK AO2 T02520113


Page loaded:  03:31 UTC  |   08:31 PM Pacific  |   09:31 PM Mountain  |   10:31 PM Central  |   11:31 PM Eastern

 

ADVISORIES

FORECASTS

FORECASTS

OBSERVATIONS

USER TOOLS

ABOUT US